createdAt,value
2019-03-08T00:00:18.598Z,78.30
2019-03-08T00:02:47.354Z,79.30
2019-03-08T00:05:16.441Z,79.10
2019-03-08T00:07:44.922Z,79.80
2019-03-08T00:10:14.017Z,80.80
2019-03-08T00:12:42.704Z,82.00
2019-03-08T00:15:13.942Z,83.60
2019-03-08T00:17:42.589Z,84.50
2019-03-08T00:20:11.358Z,85.50
2019-03-08T00:22:40.098Z,87.00
2019-03-08T00:25:13.211Z,86.70
2019-03-08T00:27:41.806Z,86.80
2019-03-08T00:30:14.898Z,88.10
2019-03-08T00:32:43.794Z,87.90
2019-03-08T00:35:12.895Z,88.00
2019-03-08T00:37:41.427Z,87.90
2019-03-08T00:40:13.021Z,86.60
2019-03-08T00:42:41.506Z,86.50
2019-03-08T00:45:12.680Z,86.80
2019-03-08T00:47:43.406Z,87.00
2019-03-08T00:50:11.634Z,87.00
2019-03-08T00:52:40.190Z,87.00
2019-03-08T00:55:10.486Z,87.10
2019-03-08T00:57:39.146Z,87.50
2019-03-08T01:00:10.787Z,87.40
2019-03-08T01:02:39.366Z,87.70
2019-03-08T01:05:08.988Z,88.40
2019-03-08T01:07:37.586Z,88.40
2019-03-08T01:10:09.214Z,88.50
2019-03-08T01:12:37.737Z,89.20
2019-03-08T01:15:09.510Z,90.00
2019-03-08T01:17:38.977Z,90.10
2019-03-08T01:20:09.944Z,89.20
2019-03-08T01:22:38.495Z,89.40
2019-03-08T01:25:07.881Z,90.00
2019-03-08T01:27:36.609Z,89.80
2019-03-08T01:30:10.787Z,90.60
2019-03-08T01:32:39.267Z,90.70
2019-03-08T01:35:08.253Z,91.40
2019-03-08T01:37:36.882Z,91.70
2019-03-08T01:40:07.951Z,91.90
2019-03-08T01:42:36.509Z,92.10
2019-03-08T01:45:07.394Z,92.10
2019-03-08T01:47:35.955Z,92.20
2019-03-08T01:50:06.419Z,92.40
2019-03-08T01:52:34.969Z,92.40
2019-03-08T01:55:05.378Z,92.20
2019-03-08T01:57:34.003Z,92.00
2019-03-08T02:00:02.622Z,92.00
2019-03-08T02:02:31.222Z,91.90
2019-03-08T02:04:59.706Z,91.90
2019-03-08T02:07:28.330Z,92.00
2019-03-08T02:09:56.859Z,92.10
2019-03-08T02:12:25.419Z,91.60
2019-03-08T02:14:54.897Z,91.70
2019-03-08T02:17:23.423Z,91.80
2019-03-08T02:19:51.945Z,91.90
2019-03-08T02:22:20.426Z,92.30
2019-03-08T02:24:48.886Z,92.50
2019-03-08T02:27:17.435Z,92.60
2019-03-08T02:29:45.966Z,92.70
2019-03-08T02:32:14.603Z,93.00
2019-03-08T02:34:43.158Z,93.10
2019-03-08T02:37:11.689Z,92.60
2019-03-08T02:39:40.243Z,91.80
2019-03-08T02:42:08.807Z,91.90
2019-03-08T02:44:37.321Z,92.20
2019-03-08T02:47:05.766Z,91.30
2019-03-08T02:49:34.432Z,91.20
2019-03-08T02:52:02.977Z,91.20
2019-03-08T02:54:31.429Z,91.60
2019-03-08T02:56:59.981Z,91.30
2019-03-08T02:59:28.442Z,91.40
2019-03-08T03:01:56.995Z,91.50
2019-03-08T03:04:25.568Z,91.50
2019-03-08T03:06:54.091Z,91.20
2019-03-08T03:09:22.674Z,91.30
2019-03-08T03:11:51.206Z,91.30
2019-03-08T03:14:19.730Z,91.10
2019-03-08T03:16:48.285Z,91.20
2019-03-08T03:19:16.733Z,91.50
2019-03-08T03:21:45.381Z,91.50
2019-03-08T03:24:13.865Z,91.70
2019-03-08T03:26:42.350Z,91.80
2019-03-08T03:29:10.901Z,91.70
2019-03-08T03:31:39.346Z,91.70
2019-03-08T03:34:07.911Z,91.60
2019-03-08T03:36:36.834Z,91.50
2019-03-08T03:39:06.908Z,91.60
2019-03-08T03:41:36.207Z,91.80
2019-03-08T03:44:04.849Z,91.80
2019-03-08T03:46:33.416Z,92.50
2019-03-08T03:49:01.956Z,92.30
2019-03-08T03:51:30.710Z,92.50
2019-03-08T03:53:59.202Z,92.50
2019-03-08T03:56:27.726Z,92.50
2019-03-08T03:58:56.431Z,92.70
2019-03-08T04:01:32.530Z,92.70
2019-03-08T04:04:01.278Z,92.60
2019-03-08T04:06:29.727Z,92.50
2019-03-08T04:08:58.306Z,92.70
2019-03-08T04:11:26.870Z,92.80
2019-03-08T04:13:55.324Z,92.70
2019-03-08T04:16:23.870Z,92.70
2019-03-08T04:18:52.695Z,92.50
2019-03-08T04:21:21.255Z,92.10
2019-03-08T04:23:49.785Z,92.10
2019-03-08T04:26:18.259Z,91.80
2019-03-08T04:28:46.790Z,92.00
2019-03-08T04:31:15.406Z,91.50
2019-03-08T04:33:43.962Z,91.20
2019-03-08T04:36:12.492Z,91.40
2019-03-08T04:38:41.043Z,91.50
2019-03-08T04:41:09.574Z,91.70
2019-03-08T04:43:38.145Z,91.50
2019-03-08T04:46:06.777Z,91.30
2019-03-08T04:48:35.323Z,91.30
2019-03-08T04:51:03.873Z,91.50
2019-03-08T04:53:32.322Z,91.20
2019-03-08T04:56:00.814Z,91.10
2019-03-08T04:58:29.258Z,90.90
2019-03-08T05:00:57.790Z,90.90
2019-03-08T05:03:26.263Z,91.00
2019-03-08T05:05:54.790Z,91.10
2019-03-08T05:08:23.402Z,91.20
2019-03-08T05:10:51.850Z,91.30
2019-03-08T05:13:20.374Z,91.40
2019-03-08T05:15:48.922Z,91.40
2019-03-08T05:18:17.486Z,91.50
2019-03-08T05:20:46.009Z,91.70
2019-03-08T05:23:14.564Z,91.60
2019-03-08T05:25:43.085Z,91.90
2019-03-08T05:28:11.614Z,91.90
2019-03-08T05:30:40.186Z,92.10
2019-03-08T05:33:08.713Z,92.10
2019-03-08T05:35:37.239Z,92.00
2019-03-08T05:38:05.799Z,91.90
2019-03-08T05:40:34.321Z,92.00
2019-03-08T05:43:04.109Z,91.90
2019-03-08T05:45:32.841Z,91.90
2019-03-08T05:48:01.385Z,91.70
2019-03-08T05:50:29.942Z,91.90
2019-03-08T05:52:58.491Z,91.90
2019-03-08T05:55:27.045Z,91.80
2019-03-08T05:57:55.565Z,91.90
2019-03-08T06:00:31.945Z,91.70
2019-03-08T06:02:55.942Z,91.90
2019-03-08T06:05:24.425Z,92.00
2019-03-08T06:07:52.952Z,92.00
2019-03-08T06:10:32.926Z,92.00
2019-03-08T06:13:02.914Z,91.90
2019-03-08T06:15:31.464Z,91.80
2019-03-08T06:18:00.030Z,91.70
2019-03-08T06:20:28.576Z,91.50
2019-03-08T06:22:57.279Z,91.30
2019-03-08T06:25:25.984Z,91.50
2019-03-08T06:27:54.490Z,91.60
2019-03-08T06:30:23.168Z,91.40
2019-03-08T06:32:51.986Z,91.60
2019-03-08T06:35:20.525Z,91.70
2019-03-08T06:37:49.009Z,91.90
2019-03-08T06:40:17.697Z,92.00
2019-03-08T06:42:46.279Z,92.00
2019-03-08T06:45:17.008Z,92.00
2019-03-08T06:47:45.847Z,92.20
2019-03-08T06:50:15.522Z,92.40
2019-03-08T06:52:44.213Z,92.60
2019-03-08T06:55:14.942Z,92.40
2019-03-08T06:57:43.535Z,92.20
2019-03-08T07:00:37.094Z,92.30
2019-03-08T07:03:07.263Z,92.50
2019-03-08T07:05:35.831Z,92.60
2019-03-08T07:08:05.025Z,92.50
2019-03-08T07:10:33.693Z,92.50
2019-03-08T07:13:03.641Z,92.30
2019-03-08T07:15:32.373Z,92.10
2019-03-08T07:18:01.393Z,92.10
2019-03-08T07:20:37.339Z,92.10
2019-03-08T07:23:07.505Z,92.10
2019-03-08T07:25:38.006Z,92.00
2019-03-08T07:28:23.638Z,91.90
2019-03-08T07:31:09.853Z,92.00
2019-03-08T07:33:43.039Z,92.30
2019-03-08T07:36:29.465Z,92.40
2019-03-08T07:39:11.567Z,92.50
2019-03-08T07:41:50.954Z,92.90
2019-03-08T07:48:02.316Z,92.50
2019-03-08T07:50:32.584Z,92.30
2019-03-08T07:53:03.104Z,92.40
2019-03-08T07:55:33.196Z,92.30
2019-03-08T07:58:03.355Z,92.20
2019-03-08T08:00:49.955Z,92.30
2019-03-08T08:03:32.037Z,91.90
2019-03-08T08:06:08.301Z,92.70
2019-03-08T08:08:51.446Z,93.30
2019-03-08T08:11:31.117Z,93.50
2019-03-08T08:14:10.348Z,93.80
2019-03-08T08:16:40.445Z,94.20
2019-03-08T08:19:10.536Z,94.10
2019-03-08T08:21:57.201Z,93.80
2019-03-08T08:24:30.208Z,93.70
2019-03-08T08:27:09.461Z,93.30
2019-03-08T08:29:54.841Z,93.30
2019-03-08T08:32:27.741Z,93.40
2019-03-08T08:35:06.510Z,93.30
2019-03-08T08:37:52.073Z,93.20
2019-03-08T08:40:22.175Z,93.10
2019-03-08T08:42:52.319Z,92.70
2019-03-08T08:45:37.693Z,92.40
2019-03-08T08:48:15.054Z,92.40
2019-03-08T08:50:47.848Z,92.10
2019-03-08T08:53:17.920Z,91.90
2019-03-08T08:55:48.408Z,92.00
2019-03-08T08:58:27.691Z,91.50
2019-03-08T09:01:09.597Z,91.50
2019-03-08T09:03:51.648Z,91.20
2019-03-08T09:06:21.700Z,90.90
2019-03-08T09:08:51.778Z,90.70
2019-03-08T09:11:31.217Z,91.00
2019-03-08T09:14:04.028Z,90.50
2019-03-08T09:16:43.404Z,90.50
2019-03-08T09:19:19.341Z,90.40
2019-03-08T09:21:51.957Z,90.30
2019-03-08T09:24:25.498Z,90.00
2019-03-08T09:27:12.353Z,89.30
2019-03-08T09:29:45.247Z,88.90
2019-03-08T09:32:15.496Z,87.00
2019-03-08T09:34:45.670Z,85.10
2019-03-08T09:37:31.988Z,85.20
2019-03-08T09:40:02.191Z,83.60
2019-03-08T09:42:48.772Z,83.40
2019-03-08T09:45:33.884Z,81.70
2019-03-08T09:48:10.742Z,78.70
2019-03-08T09:50:47.066Z,78.60
2019-03-08T09:53:17.157Z,78.00
2019-03-08T09:55:47.324Z,77.90
2019-03-08T09:58:20.239Z,78.80
2019-03-08T10:00:59.352Z,78.80
2019-03-08T10:03:35.259Z,78.30
2019-03-08T10:06:05.416Z,76.30
2019-03-08T10:08:38.180Z,75.70
2019-03-08T10:11:08.283Z,75.60
2019-03-08T10:13:38.425Z,76.90
2019-03-08T10:16:08.691Z,76.70
2019-03-08T10:18:50.337Z,76.00
2019-03-08T10:21:20.424Z,74.90
2019-03-08T10:24:06.943Z,75.80
2019-03-08T10:26:39.832Z,76.30
2019-03-08T10:29:18.892Z,76.30
2019-03-08T10:31:49.043Z,78.10
2019-03-08T10:34:27.678Z,79.90
2019-03-08T10:37:00.504Z,85.60
2019-03-08T10:39:33.493Z,91.00
2019-03-08T10:42:19.741Z,92.20
2019-03-08T10:44:49.903Z,92.70
2019-03-08T10:47:36.528Z,93.00
2019-03-08T10:50:23.838Z,92.40
2019-03-08T10:52:54.011Z,92.30
2019-03-08T10:55:25.612Z,92.20
2019-03-08T10:58:01.333Z,92.20
2019-03-08T11:00:37.534Z,91.50
2019-03-08T11:03:19.860Z,90.70
2019-03-08T11:05:52.717Z,90.60
2019-03-08T11:08:39.417Z,87.80
2019-03-08T11:11:26.269Z,88.30
2019-03-08T11:14:02.407Z,85.00
2019-03-08T11:16:35.013Z,86.10
2019-03-08T11:19:20.181Z,86.50
2019-03-08T11:21:50.251Z,86.20
2019-03-08T11:24:20.347Z,86.00
2019-03-08T11:27:04.803Z,86.60
2019-03-08T11:29:43.694Z,86.60
2019-03-08T11:32:30.543Z,86.10
2019-03-08T11:35:06.833Z,84.90
2019-03-08T11:37:46.109Z,84.90
2019-03-08T11:40:29.095Z,82.60
2019-03-08T11:43:15.493Z,81.30
2019-03-08T11:46:00.935Z,82.20
2019-03-08T11:48:45.854Z,82.70
2019-03-08T11:51:31.265Z,82.40
2019-03-08T11:54:04.339Z,81.60
2019-03-08T11:56:37.816Z,81.50
2019-03-08T11:59:22.751Z,82.70
2019-03-08T12:02:11.057Z,81.80
2019-03-08T12:04:56.235Z,82.80
2019-03-08T12:07:26.332Z,82.50
2019-03-08T12:10:12.621Z,82.40
2019-03-08T12:12:51.740Z,82.00
2019-03-08T12:15:27.706Z,81.40
2019-03-08T12:18:07.204Z,79.80
2019-03-08T12:20:49.208Z,80.50
2019-03-08T12:23:19.382Z,81.30
2019-03-08T12:25:55.560Z,79.90
2019-03-08T12:28:28.301Z,79.10
2019-03-08T12:30:58.413Z,77.80
2019-03-08T12:33:34.602Z,76.00
2019-03-08T12:36:19.725Z,73.20
2019-03-08T12:38:52.527Z,74.00
2019-03-08T12:41:28.427Z,77.30
2019-03-08T12:44:13.831Z,79.70
2019-03-08T12:46:44.093Z,81.80
2019-03-08T12:49:14.331Z,82.80
2019-03-08T12:51:56.467Z,83.60
2019-03-08T12:54:43.076Z,85.00
2019-03-08T12:57:28.466Z,87.30
2019-03-08T13:00:01.348Z,90.60
2019-03-08T13:02:31.701Z,92.00
2019-03-08T13:05:01.827Z,92.00
2019-03-08T13:07:31.897Z,92.70
2019-03-08T13:10:07.713Z,93.30
2019-03-08T13:12:36.253Z,92.90
2019-03-08T13:15:07.857Z,92.70
2019-03-08T13:17:36.400Z,93.10
2019-03-08T13:20:13.733Z,93.00
2019-03-08T13:22:42.184Z,92.60
2019-03-08T13:25:10.987Z,92.40
2019-03-08T13:27:39.498Z,92.20
2019-03-08T13:30:14.894Z,92.40
2019-03-08T13:32:43.420Z,91.70
2019-03-08T13:35:13.708Z,92.00
2019-03-08T13:37:42.145Z,91.50
2019-03-08T13:40:16.017Z,91.30
2019-03-08T13:42:44.529Z,91.20
2019-03-08T13:45:24.270Z,91.10
2019-03-08T13:47:52.846Z,90.20
2019-03-08T13:50:21.473Z,90.10
2019-03-08T13:52:49.904Z,86.40
2019-03-08T13:55:18.483Z,86.80
2019-03-08T13:57:47.018Z,84.10
2019-03-08T14:00:19.229Z,83.30
2019-03-08T14:02:47.892Z,81.40
2019-03-08T14:05:16.475Z,81.70
2019-03-08T14:07:44.947Z,81.30
2019-03-08T14:10:18.605Z,78.20
2019-03-08T14:12:47.121Z,76.40
2019-03-08T14:15:17.662Z,74.80
2019-03-08T14:17:46.122Z,74.00
2019-03-08T14:20:23.059Z,73.30
2019-03-08T14:22:51.567Z,73.90
2019-03-08T14:25:20.101Z,72.00
2019-03-08T14:27:48.884Z,72.80
2019-03-08T14:30:26.830Z,71.30
2019-03-08T14:32:57.919Z,70.60
2019-03-08T14:35:26.108Z,69.70
2019-03-08T14:37:57.012Z,69.40
2019-03-08T14:40:43.395Z,68.80
2019-03-08T14:43:22.305Z,68.30
2019-03-08T14:45:58.237Z,68.60
2019-03-08T14:48:26.718Z,66.70
2019-03-08T14:50:55.149Z,65.30
2019-03-08T14:53:23.584Z,66.70
2019-03-08T14:55:55.201Z,66.20
2019-03-08T14:58:22.261Z,66.70
2019-03-08T15:00:50.717Z,67.20
2019-03-08T15:03:20.176Z,68.20
2019-03-08T15:05:51.124Z,69.10
2019-03-08T15:08:19.504Z,69.30
2019-03-08T15:10:51.143Z,70.10
2019-03-08T15:13:20.213Z,69.80
2019-03-08T15:15:48.432Z,70.00
2019-03-08T15:18:17.033Z,69.60
2019-03-08T15:20:45.492Z,69.70
2019-03-08T15:23:17.243Z,70.70
2019-03-08T15:25:45.309Z,70.70
2019-03-08T15:28:14.398Z,70.80
2019-03-08T15:30:43.145Z,68.60
2019-03-08T15:33:11.668Z,67.80
2019-03-08T15:35:40.096Z,66.30
2019-03-08T15:38:09.987Z,65.90
2019-03-08T15:40:38.804Z,64.80
2019-03-08T15:43:09.586Z,65.60
2019-03-08T15:45:40.173Z,65.30
2019-03-08T15:48:10.871Z,66.10
2019-03-08T15:50:37.871Z,67.00
2019-03-08T15:53:06.324Z,67.80
2019-03-08T15:55:34.749Z,67.10
2019-03-08T15:58:03.275Z,67.40
2019-03-08T16:00:31.703Z,68.30
2019-03-08T16:03:00.217Z,68.40
2019-03-08T16:05:30.121Z,68.90
2019-03-08T16:08:01.920Z,68.80
2019-03-08T16:10:29.059Z,69.20
2019-03-08T16:12:57.586Z,69.20
2019-03-08T16:15:26.699Z,70.40
2019-03-08T16:17:55.193Z,70.50
2019-03-08T16:20:23.691Z,71.40
2019-03-08T16:22:52.142Z,71.70
2019-03-08T16:25:20.585Z,72.00
2019-03-08T16:27:49.028Z,73.10
2019-03-08T16:30:21.970Z,73.60
2019-03-08T16:32:58.029Z,74.30
2019-03-08T16:35:28.374Z,75.00
2019-03-08T16:38:10.361Z,75.60
2019-03-08T16:40:56.670Z,75.80
2019-03-08T16:43:32.289Z,76.10
2019-03-08T16:46:05.088Z,76.20
2019-03-08T16:48:35.109Z,76.90
2019-03-08T16:51:08.005Z,77.20
2019-03-08T16:53:40.636Z,77.50
2019-03-08T16:56:10.768Z,77.50
2019-03-08T16:58:47.252Z,78.00
2019-03-08T17:01:23.156Z,78.10
2019-03-08T17:04:11.381Z,78.40
2019-03-08T17:06:57.898Z,78.00
2019-03-08T17:09:30.781Z,78.20
2019-03-08T17:12:00.881Z,78.10
2019-03-08T17:14:47.505Z,78.00
2019-03-08T17:17:20.750Z,79.00
2019-03-08T17:20:06.341Z,78.90
2019-03-08T17:22:45.185Z,78.70
2019-03-08T17:25:18.265Z,79.30
2019-03-08T17:28:00.293Z,79.90
2019-03-08T17:30:32.966Z,80.10
2019-03-08T17:33:05.829Z,80.30
2019-03-08T17:35:44.735Z,80.30
2019-03-08T17:38:31.345Z,80.80
2019-03-08T17:41:01.781Z,80.90
2019-03-08T17:43:34.837Z,81.30
2019-03-08T17:46:21.117Z,81.70
2019-03-08T17:49:07.581Z,82.10
2019-03-08T17:51:43.601Z,82.10
2019-03-08T17:54:30.029Z,82.60
2019-03-08T17:57:18.332Z,82.90
2019-03-08T17:59:50.962Z,83.30
2019-03-08T18:02:21.496Z,83.40
2019-03-08T18:05:00.796Z,83.70
2019-03-08T18:07:46.134Z,83.90
2019-03-08T18:10:18.949Z,83.90
2019-03-08T18:12:52.058Z,84.00
2019-03-08T18:15:31.089Z,84.20
2019-03-08T18:18:06.864Z,84.10
2019-03-08T18:20:37.022Z,84.40
2019-03-08T18:23:09.788Z,84.30
2019-03-08T18:25:39.869Z,84.30
2019-03-08T18:28:13.010Z,84.00
2019-03-08T18:30:46.029Z,83.80
2019-03-08T18:33:25.127Z,83.90
2019-03-08T18:36:10.270Z,83.90
2019-03-08T18:38:52.701Z,83.80
2019-03-08T18:41:31.636Z,84.80
2019-03-08T18:44:04.752Z,83.60
2019-03-08T18:46:41.012Z,83.60
2019-03-08T18:49:13.945Z,83.40
2019-03-08T18:51:53.218Z,83.40
2019-03-08T18:54:26.104Z,83.40
2019-03-08T18:56:56.560Z,83.50
2019-03-08T18:59:26.725Z,83.40
2019-03-08T19:01:56.823Z,83.00
2019-03-08T19:04:43.346Z,83.10
2019-03-08T19:07:29.981Z,82.90
2019-03-08T19:10:00.094Z,83.00
2019-03-08T19:12:35.851Z,82.90
2019-03-08T19:15:08.823Z,83.10
2019-03-08T19:17:38.921Z,83.00
2019-03-08T19:20:16.698Z,83.00
2019-03-08T19:23:02.086Z,83.10
2019-03-08T19:25:32.172Z,83.10
2019-03-08T19:28:04.900Z,83.10
2019-03-08T19:30:37.592Z,83.30
2019-03-08T19:33:10.348Z,83.40
2019-03-08T19:35:40.454Z,83.30
2019-03-08T19:38:13.379Z,83.60
2019-03-08T19:40:43.469Z,83.50
2019-03-08T19:43:13.624Z,84.30
2019-03-08T19:45:43.729Z,84.50
2019-03-08T19:48:13.825Z,85.10
2019-03-08T19:51:02.653Z,85.70
2019-03-08T19:53:47.917Z,86.20
2019-03-08T19:56:17.972Z,87.30
2019-03-08T19:58:59.872Z,85.20
2019-03-08T20:01:29.943Z,84.50
2019-03-08T20:04:00.015Z,85.20
2019-03-08T20:06:32.850Z,85.90
2019-03-08T20:09:17.993Z,86.70
2019-03-08T20:12:03.128Z,87.10
2019-03-08T20:14:49.450Z,87.30
2019-03-08T20:17:19.535Z,87.50
2019-03-08T20:19:52.603Z,87.30
2019-03-08T20:22:34.544Z,87.10
2019-03-08T20:25:04.777Z,86.90
2019-03-08T20:27:44.048Z,86.80
2019-03-08T20:30:17.559Z,87.00
2019-03-08T20:33:03.817Z,86.70
2019-03-08T20:35:39.672Z,86.10
2019-03-08T20:38:21.741Z,86.40
2019-03-08T20:41:08.032Z,86.20
2019-03-08T20:43:38.133Z,86.70
2019-03-08T20:46:08.212Z,90.30
2019-03-08T20:48:36.656Z,93.60
2019-03-08T20:51:05.173Z,94.20
2019-03-08T20:53:33.626Z,94.80
2019-03-08T20:56:02.132Z,95.30
2019-03-08T20:58:30.569Z,95.40
2019-03-08T21:00:59.031Z,95.40
2019-03-08T21:03:27.479Z,95.40
2019-03-08T21:05:56.287Z,95.80
2019-03-08T21:08:24.744Z,95.90
2019-03-08T21:10:53.196Z,96.00
2019-03-08T21:13:21.630Z,95.60
2019-03-08T21:15:50.125Z,94.70
2019-03-08T21:18:18.556Z,94.50
2019-03-08T21:20:47.013Z,94.80
2019-03-08T21:23:15.442Z,94.70
2019-03-08T21:25:43.973Z,94.90
2019-03-08T21:28:12.402Z,95.30
2019-03-08T21:30:40.912Z,95.20
2019-03-08T21:33:09.620Z,95.10
2019-03-08T21:35:38.081Z,95.10
2019-03-08T21:38:06.519Z,95.10
2019-03-08T21:40:34.936Z,95.20
2019-03-08T21:43:03.489Z,95.50
2019-03-08T21:45:31.987Z,95.70
2019-03-08T21:48:00.506Z,95.80
2019-03-08T21:50:28.928Z,95.90
2019-03-08T21:52:57.382Z,95.90
2019-03-08T21:55:25.809Z,95.70
2019-03-08T21:57:54.258Z,95.70
2019-03-08T22:00:25.097Z,95.50
2019-03-08T22:02:53.601Z,95.40
2019-03-08T22:05:23.768Z,95.10
2019-03-08T22:07:52.184Z,95.10
2019-03-08T22:10:25.112Z,94.60
2019-03-08T22:12:53.827Z,94.60
2019-03-08T22:15:22.349Z,94.50
2019-03-08T22:17:50.777Z,94.40
2019-03-08T22:20:19.234Z,94.60
2019-03-08T22:22:47.661Z,94.40
2019-03-08T22:25:16.289Z,94.20
2019-03-08T22:27:44.723Z,94.10
2019-03-08T22:30:20.297Z,94.10
2019-03-08T22:32:48.753Z,94.20
2019-03-08T22:35:17.220Z,94.00
2019-03-08T22:37:45.732Z,94.00
2019-03-08T22:40:14.281Z,93.80
2019-03-08T22:42:42.800Z,93.70
2019-03-08T22:45:12.293Z,93.60
2019-03-08T22:47:40.749Z,93.80
2019-03-08T22:50:11.811Z,93.70
2019-03-08T22:52:40.331Z,93.60
2019-03-08T22:55:16.164Z,93.70
2019-03-08T22:57:44.689Z,93.60
2019-03-08T23:00:30.107Z,93.50
2019-03-08T23:02:58.712Z,93.40
2019-03-08T23:05:27.273Z,93.30
2019-03-08T23:07:55.716Z,93.20
2019-03-08T23:10:24.140Z,93.00
2019-03-08T23:12:52.630Z,93.20
2019-03-08T23:15:21.082Z,93.10
2019-03-08T23:17:49.532Z,92.90
2019-03-08T23:20:17.956Z,92.80
2019-03-08T23:22:46.413Z,92.80
2019-03-08T23:25:15.718Z,92.90
2019-03-08T23:27:58.319Z,92.70
2019-03-08T23:30:27.440Z,92.60
2019-03-08T23:32:55.860Z,92.60
2019-03-08T23:35:24.311Z,92.60
2019-03-08T23:37:52.741Z,92.40
2019-03-08T23:40:21.187Z,92.60
2019-03-08T23:42:49.641Z,92.50
2019-03-08T23:45:18.082Z,92.40
2019-03-08T23:47:46.497Z,92.40
2019-03-08T23:50:15.016Z,92.30
2019-03-08T23:52:43.753Z,92.30
2019-03-08T23:55:12.187Z,92.10
2019-03-08T23:57:40.636Z,92.10
